createdAt,value
2019-02-27T00:01:18.983Z,6.80
2019-02-27T00:03:49.125Z,6.83
2019-02-27T00:06:19.240Z,5.83
2019-02-27T00:08:49.384Z,5.55
2019-02-27T00:11:19.502Z,6.15
2019-02-27T00:13:49.773Z,5.28
2019-02-27T00:16:19.920Z,5.87
2019-02-27T00:18:50.057Z,6.83
2019-02-27T00:21:20.206Z,5.03
2019-02-27T00:23:50.448Z,5.67
2019-02-27T00:26:20.597Z,6.45
2019-02-27T00:28:50.735Z,4.78
2019-02-27T00:31:20.930Z,6.20
2019-02-27T00:33:51.123Z,5.00
2019-02-27T00:36:21.321Z,5.03
2019-02-27T00:38:51.487Z,5.83
2019-02-27T00:41:21.731Z,5.47
2019-02-27T00:43:52.538Z,6.08
2019-02-27T00:46:22.681Z,5.87
2019-02-27T00:48:52.863Z,5.60
2019-02-27T00:51:23.030Z,5.40
2019-02-27T00:53:53.180Z,6.70
2019-02-27T00:56:23.327Z,5.92
2019-02-27T00:58:53.508Z,5.05
2019-02-27T01:01:23.695Z,6.20
2019-02-27T01:03:53.818Z,5.22
2019-02-27T01:06:23.967Z,6.15
2019-02-27T01:08:54.074Z,6.17
2019-02-27T01:11:24.213Z,5.20
2019-02-27T01:13:54.380Z,6.00
2019-02-27T01:16:24.491Z,4.83
2019-02-27T01:18:54.643Z,4.45
2019-02-27T01:21:24.740Z,7.22
2019-02-27T01:23:54.901Z,6.40
2019-02-27T01:26:25.018Z,6.47
2019-02-27T01:28:55.215Z,6.12
2019-02-27T01:31:25.336Z,6.65
2019-02-27T01:33:55.448Z,5.28
2019-02-27T01:36:25.598Z,5.00
2019-02-27T01:38:55.792Z,5.30
2019-02-27T01:41:25.980Z,4.70
2019-02-27T01:43:57.109Z,7.35
2019-02-27T01:46:27.778Z,5.37
2019-02-27T01:48:58.694Z,5.47
2019-02-27T01:51:28.919Z,5.08
2019-02-27T01:53:59.140Z,6.22
2019-02-27T01:56:29.725Z,6.45
2019-02-27T01:59:00.032Z,6.62
2019-02-27T02:01:30.843Z,4.97
2019-02-27T02:04:01.060Z,4.87
2019-02-27T02:06:32.460Z,5.87
2019-02-27T02:09:28.761Z,4.95
2019-02-27T02:11:59.481Z,6.05
2019-02-27T02:14:41.798Z,5.37
2019-02-27T02:17:31.982Z,5.83
2019-02-27T02:20:14.085Z,6.50
2019-02-27T02:23:00.260Z,7.83
2019-02-27T02:25:50.882Z,4.78
2019-02-27T02:28:48.011Z,5.37
2019-02-27T02:31:33.690Z,5.65
2019-02-27T02:34:06.924Z,5.50
2019-02-27T02:36:49.167Z,5.58
2019-02-27T02:39:44.862Z,5.22
2019-02-27T02:42:29.711Z,5.28
2019-02-27T02:50:53.961Z,4.62
2019-02-27T02:53:38.141Z,6.65
2019-02-27T02:56:15.183Z,5.22
2019-02-27T02:59:24.801Z,11.55
2019-02-27T03:01:58.430Z,5.72
2019-02-27T03:05:04.941Z,6.25
2019-02-27T03:07:54.758Z,4.80
2019-02-27T03:10:43.861Z,5.03
2019-02-27T03:13:32.196Z,4.28
2019-02-27T03:16:08.139Z,4.97
2019-02-27T03:18:56.205Z,4.55
2019-02-27T03:21:29.481Z,5.33
2019-02-27T03:24:27.905Z,6.50
2019-02-27T03:26:58.858Z,6.20
2019-02-27T03:29:53.605Z,5.47
2019-02-27T03:32:41.263Z,5.87
2019-02-27T03:35:32.017Z,5.67
2019-02-27T03:38:08.038Z,5.37
2019-02-27T03:40:48.109Z,4.22
2019-02-27T03:43:46.809Z,5.28
2019-02-27T03:46:32.368Z,5.40
2019-02-27T03:49:40.718Z,5.10
2019-02-27T03:52:19.481Z,3.92
2019-02-27T03:55:01.702Z,6.60
2019-02-27T03:57:44.087Z,5.67
2019-02-27T04:00:36.394Z,4.25
2019-02-27T04:03:27.781Z,5.35
2019-02-27T04:06:12.692Z,6.97
2019-02-27T04:11:23.514Z,5.00
2019-02-27T04:13:53.719Z,3.72
2019-02-27T04:16:28.869Z,4.17
2019-02-27T04:18:55.676Z,4.25
2019-02-27T04:21:26.092Z,4.22
2019-02-27T04:23:56.386Z,3.92
2019-02-27T04:26:26.528Z,4.20
2019-02-27T04:28:56.664Z,3.40
2019-02-27T04:31:29.444Z,3.58
2019-02-27T04:34:00.362Z,2.92
2019-02-27T04:36:30.289Z,3.02
2019-02-27T04:39:02.470Z,5.45
2019-02-27T04:41:33.707Z,4.28
2019-02-27T04:44:06.030Z,3.65
2019-02-27T04:46:35.576Z,4.08
2019-02-27T04:49:05.721Z,4.37
2019-02-27T04:51:35.856Z,3.05
2019-02-27T04:54:07.331Z,3.83
2019-02-27T04:56:38.351Z,3.30
2019-02-27T04:59:08.485Z,3.37
2019-02-27T05:01:38.601Z,3.70
2019-02-27T05:04:08.752Z,3.98
2019-02-27T05:06:41.154Z,3.77
2019-02-27T05:09:12.726Z,3.47
2019-02-27T05:11:47.470Z,3.40
2019-02-27T05:14:17.513Z,3.77
2019-02-27T05:16:47.829Z,3.47
2019-02-27T05:19:19.081Z,2.87
2019-02-27T05:21:52.230Z,2.92
2019-02-27T05:24:20.996Z,3.02
2019-02-27T05:26:51.137Z,2.92
2019-02-27T05:29:21.315Z,2.87
2019-02-27T05:31:53.303Z,2.90
2019-02-27T05:34:23.193Z,3.35
2019-02-27T05:36:53.296Z,3.47
2019-02-27T05:39:23.438Z,3.30
2019-02-27T05:41:53.572Z,3.55
2019-02-27T05:44:27.570Z,2.45
2019-02-27T05:46:57.745Z,1.90
2019-02-27T05:49:27.880Z,2.75
2019-02-27T05:51:58.028Z,2.12
2019-02-27T05:54:29.988Z,2.50
2019-02-27T05:56:59.902Z,3.80
2019-02-27T05:59:30.001Z,2.65
2019-02-27T06:02:00.187Z,3.92
2019-02-27T06:04:30.315Z,3.42
2019-02-27T06:07:00.445Z,3.72
2019-02-27T06:09:30.623Z,3.33
2019-02-27T06:12:00.756Z,3.35
2019-02-27T06:14:30.960Z,3.47
2019-02-27T06:17:01.076Z,3.65
2019-02-27T06:19:33.622Z,5.10
2019-02-27T06:22:02.966Z,4.03
2019-02-27T06:24:33.104Z,3.45
2019-02-27T06:27:06.108Z,3.75
2019-02-27T06:29:35.146Z,4.97
2019-02-27T06:32:11.906Z,3.02
2019-02-27T06:34:39.342Z,4.20
2019-02-27T06:37:15.337Z,3.33
2019-02-27T06:39:43.413Z,3.72
2019-02-27T06:42:14.159Z,2.90
2019-02-27T06:44:44.456Z,4.10
2019-02-27T06:47:16.193Z,4.33
2019-02-27T06:49:46.358Z,3.37
2019-02-27T06:52:16.472Z,3.65
2019-02-27T06:54:46.799Z,3.37
2019-02-27T06:57:16.935Z,4.22
2019-02-27T06:59:47.061Z,3.30
2019-02-27T07:02:19.075Z,2.70
2019-02-27T07:04:48.974Z,3.02
2019-02-27T07:07:19.651Z,2.10
2019-02-27T07:09:49.788Z,2.40
2019-02-27T07:12:21.794Z,3.00
2019-02-27T07:14:52.427Z,2.22
2019-02-27T07:17:22.545Z,2.00
2019-02-27T07:19:52.738Z,2.70
2019-02-27T07:22:22.849Z,2.75
2019-02-27T07:24:52.987Z,2.60
2019-02-27T07:27:23.093Z,2.98
2019-02-27T07:29:53.236Z,2.52
2019-02-27T07:32:23.341Z,3.67
2019-02-27T07:34:53.491Z,2.58
2019-02-27T07:37:23.593Z,2.83
2019-02-27T07:39:53.853Z,3.25
2019-02-27T07:42:25.546Z,3.15
2019-02-27T07:44:55.678Z,3.37
2019-02-27T07:47:25.864Z,3.22
2019-02-27T07:49:58.126Z,3.10
2019-02-27T07:52:32.100Z,3.25
2019-02-27T07:54:59.744Z,3.40
2019-02-27T07:57:29.912Z,3.58
2019-02-27T08:00:00.267Z,5.53
2019-02-27T08:02:30.520Z,4.72
2019-02-27T08:05:00.682Z,4.47
2019-02-27T08:07:30.844Z,5.25
2019-02-27T08:10:04.597Z,5.17
2019-02-27T08:12:34.975Z,5.10
2019-02-27T08:15:05.822Z,4.10
2019-02-27T08:17:35.925Z,4.75
2019-02-27T08:20:08.006Z,5.42
2019-02-27T08:22:38.141Z,4.72
2019-02-27T08:25:11.522Z,5.10
2019-02-27T08:27:43.749Z,4.80
2019-02-27T08:30:23.598Z,4.83
2019-02-27T08:32:53.708Z,5.72
2019-02-27T08:35:23.868Z,5.03
2019-02-27T08:38:08.513Z,4.67
2019-02-27T08:40:38.663Z,5.17
2019-02-27T08:43:10.258Z,4.95
2019-02-27T08:45:42.929Z,4.42
2019-02-27T08:48:17.106Z,4.25
2019-02-27T08:50:44.806Z,5.80
2019-02-27T08:53:14.927Z,3.85
2019-02-27T08:55:45.089Z,4.65
2019-02-27T08:58:15.212Z,4.80
2019-02-27T09:00:48.156Z,4.80
2019-02-27T09:03:20.560Z,5.37
2019-02-27T09:05:53.653Z,5.17
2019-02-27T09:08:22.833Z,5.83
2019-02-27T09:10:52.977Z,4.20
2019-02-27T09:13:23.102Z,5.12
2019-02-27T09:15:53.799Z,4.30
2019-02-27T09:18:24.089Z,4.87
2019-02-27T09:20:54.336Z,3.90
2019-02-27T09:23:24.449Z,3.98
2019-02-27T09:25:57.291Z,5.47
2019-02-27T09:28:26.335Z,3.83
2019-02-27T09:30:56.472Z,4.75
2019-02-27T09:33:26.597Z,5.33
2019-02-27T09:35:56.763Z,4.10
2019-02-27T09:38:26.893Z,5.78
2019-02-27T09:40:57.957Z,4.97
2019-02-27T09:43:28.085Z,5.75
2019-02-27T09:45:58.226Z,3.80
2019-02-27T09:48:30.918Z,3.67
2019-02-27T09:51:00.178Z,4.00
2019-02-27T09:53:30.311Z,6.25
2019-02-27T09:56:00.462Z,5.53
2019-02-27T09:58:30.577Z,4.78
2019-02-27T10:01:03.790Z,5.22
2019-02-27T10:03:33.898Z,5.67
2019-02-27T10:06:04.107Z,4.67
2019-02-27T10:08:34.233Z,5.33
2019-02-27T10:11:04.397Z,4.65
2019-02-27T10:13:35.482Z,5.58
2019-02-27T10:16:08.538Z,4.90
2019-02-27T10:18:38.652Z,3.95
2019-02-27T10:21:09.452Z,4.75
2019-02-27T10:23:40.548Z,4.15
2019-02-27T10:26:10.687Z,4.17
2019-02-27T10:28:40.793Z,3.92
2019-02-27T10:31:12.648Z,3.58
2019-02-27T10:33:43.484Z,3.37
2019-02-27T10:36:16.198Z,3.20
2019-02-27T10:38:46.648Z,4.17
2019-02-27T10:41:16.797Z,4.30
2019-02-27T10:43:46.909Z,3.92
2019-02-27T10:46:17.054Z,3.67
2019-02-27T10:48:47.620Z,3.90
2019-02-27T10:51:17.805Z,3.40
2019-02-27T10:53:48.033Z,3.60
2019-02-27T10:56:18.210Z,3.70
2019-02-27T10:58:48.357Z,4.08
2019-02-27T11:01:18.521Z,2.70
2019-02-27T11:03:48.680Z,2.55
2019-02-27T11:06:18.828Z,2.87
2019-02-27T11:08:51.261Z,3.08
2019-02-27T11:11:21.436Z,3.00
2019-02-27T11:13:51.776Z,2.85
2019-02-27T11:16:24.220Z,2.67
2019-02-27T11:18:56.210Z,2.50
2019-02-27T11:21:26.349Z,2.67
2019-02-27T11:23:56.490Z,2.90
2019-02-27T11:26:26.634Z,3.05
2019-02-27T11:28:57.819Z,2.30
2019-02-27T11:31:28.236Z,2.12
2019-02-27T11:33:58.329Z,1.45
2019-02-27T11:36:28.590Z,1.65
2019-02-27T11:38:59.300Z,2.40
2019-02-27T11:41:30.177Z,1.77
2019-02-27T11:44:00.329Z,2.90
2019-02-27T11:46:30.481Z,3.02
2019-02-27T11:49:03.186Z,1.70
2019-02-27T11:51:33.172Z,2.02
2019-02-27T11:54:04.338Z,1.80
2019-02-27T11:56:34.553Z,2.92
2019-02-27T11:59:04.710Z,2.37
2019-02-27T12:01:34.929Z,1.77
2019-02-27T12:04:05.101Z,2.40
2019-02-27T12:06:35.374Z,1.45
2019-02-27T12:09:06.545Z,2.00
2019-02-27T12:11:36.847Z,2.98
2019-02-27T12:14:08.989Z,1.50
2019-02-27T12:16:39.978Z,2.45
2019-02-27T12:19:10.141Z,2.08
2019-02-27T12:21:40.295Z,2.40
2019-02-27T12:24:11.562Z,2.45
2019-02-27T12:26:41.708Z,2.80
2019-02-27T12:29:11.855Z,2.08
2019-02-27T12:31:47.938Z,2.40
2019-02-27T12:34:16.868Z,2.65
2019-02-27T12:36:47.025Z,2.42
2019-02-27T12:39:18.648Z,2.22
2019-02-27T12:41:48.919Z,2.42
2019-02-27T12:44:19.069Z,2.77
2019-02-27T12:46:49.290Z,3.58
2019-02-27T12:49:20.956Z,2.42
2019-02-27T12:51:52.130Z,2.25
2019-02-27T12:54:22.274Z,3.22
2019-02-27T12:56:52.423Z,2.22
2019-02-27T12:59:22.560Z,4.05
2019-02-27T13:01:52.734Z,4.17
2019-02-27T13:04:22.841Z,5.28
2019-02-27T13:06:53.003Z,4.75
2019-02-27T13:09:25.418Z,4.22
2019-02-27T13:11:55.570Z,4.45
2019-02-27T13:14:25.700Z,4.97
2019-02-27T13:16:55.854Z,5.17
2019-02-27T13:19:25.975Z,3.77
2019-02-27T13:21:56.130Z,3.70
2019-02-27T13:24:26.290Z,3.95
2019-02-27T13:26:56.413Z,3.65
2019-02-27T13:29:26.589Z,4.45
2019-02-27T13:31:56.740Z,4.53
2019-02-27T13:34:26.905Z,3.83
2019-02-27T13:36:57.033Z,3.10
2019-02-27T13:39:27.216Z,3.40
2019-02-27T13:41:57.410Z,3.25
2019-02-27T13:44:27.609Z,5.37
2019-02-27T13:46:58.566Z,4.15
2019-02-27T13:49:28.757Z,4.40
2019-02-27T13:51:58.908Z,4.40
2019-02-27T13:54:29.130Z,5.55
2019-02-27T13:56:59.273Z,5.55
2019-02-27T13:59:30.553Z,5.05
2019-02-27T14:02:03.839Z,4.65
2019-02-27T14:04:32.514Z,5.45
2019-02-27T14:07:02.673Z,4.30
2019-02-27T14:09:39.166Z,5.22
2019-02-27T14:12:10.035Z,4.60
2019-02-27T14:14:40.192Z,4.40
2019-02-27T14:17:11.344Z,4.97
2019-02-27T14:19:41.769Z,5.55
2019-02-27T14:22:11.916Z,5.03
2019-02-27T14:24:42.080Z,5.20
2019-02-27T14:27:14.562Z,5.47
2019-02-27T14:29:44.062Z,4.65
2019-02-27T14:32:16.470Z,4.12
2019-02-27T14:34:47.453Z,4.42
2019-02-27T14:37:18.462Z,5.95
2019-02-27T14:39:48.637Z,4.95
2019-02-27T14:42:20.552Z,5.78
2019-02-27T14:44:51.476Z,5.25
2019-02-27T14:47:21.625Z,4.83
2019-02-27T14:49:51.794Z,5.37
2019-02-27T14:52:21.950Z,6.80
2019-02-27T14:54:52.839Z,4.72
2019-02-27T14:57:22.985Z,6.17
2019-02-27T14:59:53.149Z,4.85
2019-02-27T15:02:23.316Z,5.20
2019-02-27T15:04:53.430Z,5.55
2019-02-27T15:07:23.594Z,6.28
2019-02-27T15:09:53.708Z,5.67
2019-02-27T15:12:23.865Z,5.62
2019-02-27T15:14:53.989Z,5.95
2019-02-27T15:17:24.241Z,6.20
2019-02-27T15:19:54.421Z,6.47
2019-02-27T15:22:26.873Z,5.40
2019-02-27T15:24:57.030Z,6.95
2019-02-27T15:27:27.279Z,6.25
2019-02-27T15:29:57.429Z,5.55
2019-02-27T15:32:29.432Z,5.33
2019-02-27T15:34:59.298Z,6.67
2019-02-27T15:37:29.566Z,4.97
2019-02-27T15:39:59.676Z,6.42
2019-02-27T15:42:29.825Z,5.22
2019-02-27T15:44:59.962Z,6.78
2019-02-27T15:47:30.305Z,8.10
2019-02-27T15:50:02.648Z,7.53
2019-02-27T15:52:34.462Z,6.90
2019-02-27T15:55:05.984Z,8.03
2019-02-27T15:57:36.150Z,7.33
2019-02-27T16:00:17.695Z,6.58
2019-02-27T16:02:43.892Z,7.75
2019-02-27T16:05:15.220Z,9.48
2019-02-27T16:07:48.725Z,7.33
2019-02-27T16:10:19.014Z,7.75
2019-02-27T16:12:49.171Z,8.78
2019-02-27T16:15:21.485Z,8.70
2019-02-27T16:17:52.221Z,9.15
2019-02-27T16:20:26.441Z,7.50
2019-02-27T16:22:56.609Z,7.28
2019-02-27T16:25:27.769Z,7.72
2019-02-27T16:27:57.962Z,8.40
2019-02-27T16:30:32.515Z,8.05
2019-02-27T16:33:00.961Z,6.35
2019-02-27T16:35:31.081Z,8.33
2019-02-27T16:38:01.237Z,6.80
2019-02-27T16:40:31.372Z,7.42
2019-02-27T16:43:01.511Z,7.12
2019-02-27T16:45:38.026Z,7.37
2019-02-27T16:48:11.094Z,6.87
2019-02-27T16:50:40.697Z,6.60
2019-02-27T16:53:16.253Z,6.75
2019-02-27T16:55:42.693Z,9.18
2019-02-27T16:58:12.909Z,6.45
2019-02-27T17:00:43.781Z,8.50
2019-02-27T17:03:14.765Z,7.47
2019-02-27T17:05:44.996Z,8.10
2019-02-27T17:08:15.209Z,7.10
2019-02-27T17:10:45.392Z,6.15
2019-02-27T17:13:15.630Z,6.75
2019-02-27T17:15:45.815Z,6.78
2019-02-27T17:18:16.069Z,6.53
2019-02-27T17:20:47.272Z,4.72
2019-02-27T17:23:17.466Z,7.42
2019-02-27T17:25:48.200Z,7.72
2019-02-27T17:28:18.415Z,7.22
2019-02-27T17:30:48.566Z,8.70
2019-02-27T17:33:18.698Z,7.08
2019-02-27T17:35:53.041Z,7.97
2019-02-27T17:38:22.965Z,5.78
2019-02-27T17:40:53.112Z,7.20
2019-02-27T17:43:28.518Z,7.80
2019-02-27T17:45:54.961Z,7.85
2019-02-27T17:48:25.084Z,6.45
2019-02-27T17:50:55.230Z,7.42
2019-02-27T17:53:25.368Z,7.92
2019-02-27T17:55:55.521Z,7.22
2019-02-27T17:58:31.907Z,9.00
2019-02-27T18:01:00.004Z,9.28
2019-02-27T18:03:30.113Z,8.45
2019-02-27T18:06:00.289Z,9.00
2019-02-27T18:08:30.504Z,8.75
2019-02-27T18:11:00.650Z,10.45
2019-02-27T18:13:35.385Z,8.55
2019-02-27T18:16:02.552Z,7.70
2019-02-27T18:18:32.682Z,6.97
2019-02-27T18:21:02.812Z,9.30
2019-02-27T18:23:34.653Z,7.15
2019-02-27T18:26:07.061Z,8.35
2019-02-27T18:28:37.236Z,9.68
2019-02-27T18:31:27.419Z,8.25
2019-02-27T18:33:58.176Z,9.25
2019-02-27T18:36:29.618Z,8.70
2019-02-27T18:39:02.575Z,9.18
2019-02-27T18:41:35.338Z,10.25
2019-02-27T18:44:07.888Z,11.00
2019-02-27T18:46:37.323Z,9.83
2019-02-27T18:49:07.473Z,9.20
2019-02-27T18:51:37.597Z,10.00
2019-02-27T18:54:07.758Z,12.03
2019-02-27T18:56:40.381Z,8.23
2019-02-27T18:59:10.751Z,13.22
2019-02-27T19:01:41.384Z,11.30
2019-02-27T19:04:12.801Z,9.15
2019-02-27T19:06:43.131Z,8.98
2019-02-27T19:09:14.976Z,7.70
2019-02-27T19:11:47.487Z,7.92
2019-02-27T19:14:17.022Z,7.05
2019-02-27T19:16:45.469Z,6.37
2019-02-27T19:19:13.751Z,5.85
2019-02-27T19:21:41.641Z,5.87
2019-02-27T19:24:08.870Z,6.42
2019-02-27T19:28:17.409Z,4.90
2019-02-27T19:30:45.317Z,6.25
2019-02-27T19:35:50.115Z,6.12
2019-02-27T19:38:18.328Z,6.20
2019-02-27T19:43:01.324Z,8.05
2019-02-27T19:45:28.501Z,6.47
2019-02-27T19:47:55.862Z,7.53
2019-02-27T19:50:23.194Z,6.35
2019-02-27T19:52:50.228Z,5.90
2019-02-27T19:55:17.352Z,8.68
2019-02-27T19:57:44.486Z,7.17
2019-02-27T20:00:17.226Z,7.10
2019-02-27T20:02:44.290Z,5.45
2019-02-27T20:05:12.387Z,5.72
2019-02-27T20:07:39.577Z,4.25
2019-02-27T20:10:13.668Z,5.83
2019-02-27T20:12:40.742Z,5.15
2019-02-27T20:15:15.497Z,4.97
2019-02-27T20:17:42.722Z,6.00
2019-02-27T20:20:11.744Z,4.17
2019-02-27T20:22:38.775Z,5.20
2019-02-27T20:25:11.674Z,3.62
2019-02-27T20:27:38.682Z,5.03
2019-02-27T20:30:14.084Z,5.65
2019-02-27T20:32:38.497Z,6.22
2019-02-27T20:35:08.175Z,6.47
2019-02-27T20:37:37.120Z,5.85
2019-02-27T20:40:10.038Z,6.92
2019-02-27T20:42:37.881Z,5.90
2019-02-27T20:45:09.578Z,6.10
2019-02-27T20:47:36.715Z,6.45
2019-02-27T20:50:08.886Z,6.83
2019-02-27T20:52:35.949Z,7.08
2019-02-27T20:55:04.102Z,6.10
2019-02-27T20:57:31.167Z,3.15
2019-02-27T21:00:02.181Z,3.75
2019-02-27T21:02:27.217Z,7.20
2019-02-27T21:04:54.257Z,5.50
2019-02-27T21:07:22.507Z,5.62
2019-02-27T21:09:49.873Z,7.70
2019-02-27T21:12:16.942Z,8.63
2019-02-27T21:14:44.021Z,6.70
2019-02-27T21:17:11.144Z,4.95
2019-02-27T21:19:38.283Z,3.58
2019-02-27T21:22:05.309Z,5.20
2019-02-27T21:24:32.377Z,3.22
2019-02-27T21:26:59.398Z,6.85
2019-02-27T21:29:26.465Z,5.55
2019-02-27T21:31:53.526Z,5.33
2019-02-27T21:34:20.615Z,5.87
2019-02-27T21:36:47.634Z,3.92
2019-02-27T21:39:14.670Z,5.40
2019-02-27T21:41:42.243Z,3.67
2019-02-27T21:44:10.615Z,4.12
2019-02-27T21:46:37.721Z,7.12
2019-02-27T21:49:04.789Z,9.30
2019-02-27T21:51:31.971Z,10.20
2019-02-27T21:54:00.295Z,8.18
2019-02-27T21:56:28.524Z,12.07
2019-02-27T21:58:55.618Z,9.65
2019-02-27T22:01:23.749Z,9.20
2019-02-27T22:03:50.781Z,8.33
2019-02-27T22:06:17.793Z,9.43
2019-02-27T22:08:45.869Z,8.33
2019-02-27T22:11:13.002Z,9.35
2019-02-27T22:13:42.173Z,8.08
2019-02-27T22:16:09.213Z,10.85
2019-02-27T22:18:37.349Z,10.55
2019-02-27T22:21:04.465Z,7.90
2019-02-27T22:23:31.753Z,7.47
2019-02-27T22:25:58.816Z,7.72
2019-02-27T22:28:25.889Z,6.42
2019-02-27T22:30:52.917Z,6.45
2019-02-27T22:33:23.046Z,6.55
2019-02-27T22:35:48.834Z,6.37
2019-02-27T22:38:15.937Z,5.15
2019-02-27T22:40:42.968Z,5.25
2019-02-27T22:43:12.370Z,7.58
2019-02-27T22:45:42.021Z,4.65
2019-02-27T22:48:09.333Z,4.10
2019-02-27T22:50:38.314Z,8.13
2019-02-27T22:53:05.200Z,5.47
2019-02-27T22:55:32.190Z,5.17
2019-02-27T22:57:59.291Z,8.40
2019-02-27T23:00:56.511Z,7.30
2019-02-27T23:03:43.366Z,7.53
2019-02-27T23:06:12.222Z,8.30
2019-02-27T23:08:39.789Z,7.22
2019-02-27T23:11:06.964Z,10.25
2019-02-27T23:13:35.743Z,9.40
2019-02-27T23:16:02.841Z,11.40
2019-02-27T23:18:29.849Z,13.48
2019-02-27T23:20:56.937Z,10.85
2019-02-27T23:23:23.918Z,10.72
2019-02-27T23:25:50.973Z,10.85
2019-02-27T23:28:17.934Z,11.18
2019-02-27T23:30:46.992Z,9.78
2019-02-27T23:33:14.914Z,8.70
2019-02-27T23:35:41.973Z,10.78
2019-02-27T23:38:08.970Z,12.95
2019-02-27T23:40:35.982Z,13.03
2019-02-27T23:43:03.612Z,10.03
2019-02-27T23:45:31.192Z,14.13
2019-02-27T23:47:59.246Z,12.47
2019-02-27T23:50:27.173Z,8.90
2019-02-27T23:52:54.301Z,10.38
2019-02-27T23:55:21.465Z,10.45
2019-02-27T23:57:48.513Z,9.03
